Colfax, CA (95713)

12:26 PM PST on December 19, 2014 (GMT -0800)
MAP COLFAX CA PSD | Change Station
CLOSE
Current Station
Personal Weather Station
Location: Colfax, CA
Elevation: 2109 ft
Nearby Weather Stations

Elev 2109 ft 39.08 °N, 120.94 °W | Updated 1 hour ago

Rain
Rain
44 °F
Feels Like 44 °F
N
0
Wind Variable Wind from West
Gusts 0.0 mph

Today
High -- | Low -- °F
--% Chance of Precip.
Yesterday
High -- | Low -- °F
Precip. -- in
7:18 AM 4:43 PM
Waning Crescent, 6% visible
Pressure 30.16 in
Visibility 9.0 miles
Clouds Few 500 ft
Mostly Cloudy 3700 ft
Overcast 5000 ft
Windchill 44 °F
Dew Point 43 °F
Humidity 97%
Rainfall -999.00 in
Snow Depth Not available.
UV 1 out of 12
Pollen 1.60 out of 12
Air Quality Not available.
Flu Activity Not available.
METAR KGOO 192020Z AUTO 13007KT 100V160 9SM FEW005 BKN037 OVC050 06/06 A3016 RMK AO1

More Conditions Fewer Conditions

Pressure 30.16 in
Visibility 9.0 miles
Clouds Few 500 ft
Mostly Cloudy 3700 ft
Overcast 5000 ft
Windchill 44 °F
Dew Point 43 °F
Humidity 97%
Rainfall -999.00 in
Snow Depth Not available.
UV 1 out of 12
Pollen 1.60 out of 12
Air Quality Not available.
Flu Activity Not available.
METAR KGOO 192020Z AUTO 13007KT 100V160 9SM FEW005 BKN037 OVC050 06/06 A3016 RMK AO1

More Conditions Fewer Conditions

10-Day Weather Forecast

Almanac

Astronomy

Dec. 19, 2014 Rise Set
Actual Time
Civil Twilight
Nautical Twilight
Astronomical Twilight
Moon
Length of Visible Light
Length of Day
Tomorrow will be .
, % of the Moon is Illuminated

Today's Extremes

State Highs State Lows

Community

WunderPhotos

Upload Photos

1,779,047 photos uploaded!

WunderBlogs® & News

Nearby

Air Quality

  Air Quality AQ Index Pollutant
Not available.

Snow Depth

Station Depth Elevation

Earthquake Activity

City Distance Mag. Time & Date
Minimum magnitude displayed is 2.5.

Coastal Water Temperatures

Place Temperature

Nearby Weather Stations